sensor_id;sensor_type;location;lat;lon;timestamp;pressure;altitude;pressure_sealevel;temperature;humidity
25759;BME280;13604;52.496;13.456;2023-05-25T00:00:10;101895.22;;;9.16;94.44
25759;BME280;13604;52.496;13.456;2023-05-25T00:02:37;101880.81;;;9.08;94.22
25759;BME280;13604;52.496;13.456;2023-05-25T00:05:04;101904.28;;;9.21;93.82
25759;BME280;13604;52.496;13.456;2023-05-25T00:07:29;101883.41;;;9.08;93.38
25759;BME280;13604;52.496;13.456;2023-05-25T00:09:55;101891.09;;;9.06;94.05
25759;BME280;13604;52.496;13.456;2023-05-25T00:12:20;101916.03;;;9.16;94.45
25759;BME280;13604;52.496;13.456;2023-05-25T00:14:45;101868.47;;;8.92;93.61
25759;BME280;13604;52.496;13.456;2023-05-25T00:17:11;101896.38;;;9.19;93.99
25759;BME280;13604;52.496;13.456;2023-05-25T00:19:39;101908.56;;;9.20;93.33
25759;BME280;13604;52.496;13.456;2023-05-25T00:22:08;101878.03;;;9.05;93.98
25759;BME280;13604;52.496;13.456;2023-05-25T00:24:34;101905.00;;;9.32;93.23
25759;BME280;13604;52.496;13.456;2023-05-25T00:26:59;101892.88;;;9.32;93.17
25759;BME280;13604;52.496;13.456;2023-05-25T00:29:25;101866.28;;;9.23;92.46
25759;BME280;13604;52.496;13.456;2023-05-25T00:31:51;101890.34;;;9.46;92.39
25759;BME280;13604;52.496;13.456;2023-05-25T00:34:16;101874.94;;;9.49;91.61
25759;BME280;13604;52.496;13.456;2023-05-25T00:36:42;101892.38;;;9.63;90.97
25759;BME280;13604;52.496;13.456;2023-05-25T00:39:07;101893.22;;;9.75;90.22
25759;BME280;13604;52.496;13.456;2023-05-25T00:41:33;101869.50;;;9.71;89.83
25759;BME280;13604;52.496;13.456;2023-05-25T00:44:02;101897.66;;;10.03;89.01
25759;BME280;13604;52.496;13.456;2023-05-25T00:46:28;101873.72;;;9.95;88.33
25759;BME280;13604;52.496;13.456;2023-05-25T00:48:54;101878.03;;;9.95;88.06
25759;BME280;13604;52.496;13.456;2023-05-25T00:51:20;101896.03;;;10.19;87.16
25759;BME280;13604;52.496;13.456;2023-05-25T00:53:45;101884.75;;;10.18;86.01
25759;BME280;13604;52.496;13.456;2023-05-25T00:56:17;101911.88;;;10.35;85.22
25759;BME280;13604;52.496;13.456;2023-05-25T00:58:45;101905.16;;;10.39;85.05
25759;BME280;13604;52.496;13.456;2023-05-25T01:01:14;101902.06;;;10.44;84.79
25759;BME280;13604;52.496;13.456;2023-05-25T01:03:41;101903.66;;;10.42;84.80
25759;BME280;13604;52.496;13.456;2023-05-25T02:05:41;101861.56;;;9.17;90.79
25759;BME280;13604;52.496;13.456;2023-05-25T02:08:06;101888.63;;;9.33;91.05
25759;BME280;13604;52.496;13.456;2023-05-25T02:10:31;101891.22;;;9.33;90.89
25759;BME280;13604;52.496;13.456;2023-05-25T02:12:56;101898.31;;;9.35;91.27
25759;BME280;13604;52.496;13.456;2023-05-25T02:15:23;101873.22;;;9.11;91.92
25759;BME280;13604;52.496;13.456;2023-05-25T02:17:48;101880.91;;;9.09;91.84
25759;BME280;13604;52.496;13.456;2023-05-25T02:20:14;101871.56;;;8.99;92.26
25759;BME280;13604;52.496;13.456;2023-05-25T02:22:40;101884.69;;;9.01;92.38
25759;BME280;13604;52.496;13.456;2023-05-25T02:25:05;101883.13;;;8.91;93.17
25759;BME280;13604;52.496;13.456;2023-05-25T02:27:34;101863.09;;;8.77;92.77
25759;BME280;13604;52.496;13.456;2023-05-25T02:29:59;101880.47;;;8.78;93.31
25759;BME280;13604;52.496;13.456;2023-05-25T02:32:24;101915.22;;;8.92;94.46
25759;BME280;13604;52.496;13.456;2023-05-25T02:34:50;101865.75;;;8.53;94.42
25759;BME280;13604;52.496;13.456;2023-05-25T02:37:15;101891.91;;;8.68;95.43
25759;BME280;13604;52.496;13.456;2023-05-25T02:39:40;101917.72;;;8.90;96.24
25759;BME280;13604;52.496;13.456;2023-05-25T02:42:06;101920.53;;;8.93;95.50
25759;BME280;13604;52.496;13.456;2023-05-25T02:44:31;101884.81;;;8.65;96.25
25759;BME280;13604;52.496;13.456;2023-05-25T02:46:57;101914.00;;;8.87;96.53
25759;BME280;13604;52.496;13.456;2023-05-25T02:49:22;101894.84;;;8.73;96.73
25759;BME280;13604;52.496;13.456;2023-05-25T02:51:47;101899.69;;;8.68;97.66
25759;BME280;13604;52.496;13.456;2023-05-25T02:54:13;101889.53;;;8.71;97.49
25759;BME280;13604;52.496;13.456;2023-05-25T02:56:38;101879.84;;;8.69;97.18
25759;BME280;13604;52.496;13.456;2023-05-25T02:59:03;101907.66;;;8.83;97.60
25759;BME280;13604;52.496;13.456;2023-05-25T03:01:29;101889.09;;;8.65;98.10
25759;BME280;13604;52.496;13.456;2023-05-25T03:03:55;101916.16;;;8.80;98.31
25759;BME280;13604;52.496;13.456;2023-05-25T03:06:21;101916.84;;;8.78;98.35
25759;BME280;13604;52.496;13.456;2023-05-25T03:08:47;101858.84;;;8.42;98.66
25759;BME280;13604;52.496;13.456;2023-05-25T03:11:13;101848.94;;;8.36;99.45
25759;BME280;13604;52.496;13.456;2023-05-25T03:13:38;101886.19;;;8.60;99.06
25759;BME280;13604;52.496;13.456;2023-05-25T03:16:04;101793.03;;;8.04;98.51
25759;BME280;13604;52.496;13.456;2023-05-25T03:18:29;101892.81;;;8.57;98.90
25759;BME280;13604;52.496;13.456;2023-05-25T03:20:54;101892.81;;;8.57;99.65
25759;BME280;13604;52.496;13.456;2023-05-25T03:23:20;101896.34;;;8.57;99.24
25759;BME280;13604;52.496;13.456;2023-05-25T03:25:45;101929.19;;;8.69;99.54
25759;BME280;13604;52.496;13.456;2023-05-25T03:28:11;101923.75;;;8.65;99.29
25759;BME280;13604;52.496;13.456;2023-05-25T03:30:36;101928.63;;;8.61;99.91
25759;BME280;13604;52.496;13.456;2023-05-25T03:33:01;101868.47;;;8.31;100.00
25759;BME280;13604;52.496;13.456;2023-05-25T03:35:27;101911.47;;;8.51;100.00
25759;BME280;13604;52.496;13.456;2023-05-25T03:37:52;101931.34;;;8.62;100.00
25759;BME280;13604;52.496;13.456;2023-05-25T03:40:17;101896.38;;;8.45;99.97
25759;BME280;13604;52.496;13.456;2023-05-25T03:42:42;101893.28;;;8.39;100.00
25759;BME280;13604;52.496;13.456;2023-05-25T03:45:08;101919.72;;;8.57;100.00
25759;BME280;13604;52.496;13.456;2023-05-25T03:47:35;101897.03;;;8.43;100.00
25759;BME280;13604;52.496;13.456;2023-05-25T03:50:00;101918.72;;;8.55;100.00
25759;BME280;13604;52.496;13.456;2023-05-25T03:52:26;101937.75;;;8.68;100.00
25759;BME280;13604;52.496;13.456;2023-05-25T03:54:51;101916.31;;;8.58;100.00
25759;BME280;13604;52.496;13.456;2023-05-25T03:57:17;101918.00;;;8.58;100.00
25759;BME280;13604;52.496;13.456;2023-05-25T03:59:42;101922.06;;;8.66;100.00
25759;BME280;13604;52.496;13.456;2023-05-25T04:02:07;101937.50;;;8.76;100.00
25759;BME280;13604;52.496;13.456;2023-05-25T04:04:32;101924.22;;;8.72;100.00
25759;BME280;13604;52.496;13.456;2023-05-25T04:06:58;101943.59;;;8.89;100.00
25759;BME280;13604;52.496;13.456;2023-05-25T04:09:23;101905.81;;;8.69;100.00
25759;BME280;13604;52.496;13.456;2023-05-25T04:11:49;101946.03;;;8.99;100.00
25759;BME280;13604;52.496;13.456;2023-05-25T04:14:14;101883.88;;;8.77;100.00
25759;BME280;13604;52.496;13.456;2023-05-25T04:16:39;101942.94;;;9.16;100.00
25759;BME280;13604;52.496;13.456;2023-05-25T04:19:05;101936.56;;;9.25;100.00
25759;BME280;13604;52.496;13.456;2023-05-25T04:21:30;101945.22;;;9.37;100.00
25759;BME280;13604;52.496;13.456;2023-05-25T04:23:56;101948.25;;;9.43;100.00
25759;BME280;13604;52.496;13.456;2023-05-25T04:26:21;101936.13;;;9.44;100.00
25759;BME280;13604;52.496;13.456;2023-05-25T04:28:47;101956.94;;;9.69;100.00
25759;BME280;13604;52.496;13.456;2023-05-25T04:31:12;101928.22;;;9.67;99.92
25759;BME280;13604;52.496;13.456;2023-05-25T04:33:37;101920.03;;;9.74;98.86
25759;BME280;13604;52.496;13.456;2023-05-25T04:36:06;101959.72;;;10.10;98.46
25759;BME280;13604;52.496;13.456;2023-05-25T04:38:32;101976.94;;;10.22;97.21
25759;BME280;13604;52.496;13.456;2023-05-25T04:40:58;101965.69;;;10.35;96.28
25759;BME280;13604;52.496;13.456;2023-05-25T04:43:26;101954.09;;;10.31;95.89
25759;BME280;13604;52.496;13.456;2023-05-25T04:45:51;101942.41;;;10.38;95.46
25759;BME280;13604;52.496;13.456;2023-05-25T04:48:17;101948.22;;;10.47;94.90
25759;BME280;13604;52.496;13.456;2023-05-25T04:50:42;101956.97;;;10.61;94.07
25759;BME280;13604;52.496;13.456;2023-05-25T04:53:08;101950.13;;;10.63;93.05
25759;BME280;13604;52.496;13.456;2023-05-25T04:55:33;101925.28;;;10.55;93.64
25759;BME280;13604;52.496;13.456;2023-05-25T04:57:59;101947.19;;;10.72;92.97
25759;BME280;13604;52.496;13.456;2023-05-25T05:00:25;101969.22;;;10.90;93.28
25759;BME280;13604;52.496;13.456;2023-05-25T05:02:50;101953.38;;;10.87;92.70
25759;BME280;13604;52.496;13.456;2023-05-25T05:05:16;101958.75;;;11.03;92.14
25759;BME280;13604;52.496;13.456;2023-05-25T05:07:42;101928.69;;;10.95;92.12
25759;BME280;13604;52.496;13.456;2023-05-25T05:10:07;101946.31;;;11.13;92.09
25759;BME280;13604;52.496;13.456;2023-05-25T05:12:33;101913.25;;;10.98;91.90
25759;BME280;13604;52.496;13.456;2023-05-25T05:14:58;101914.38;;;11.02;93.79
25759;BME280;13604;52.496;13.456;2023-05-25T05:17:23;101931.03;;;11.19;92.33
25759;BME280;13604;52.496;13.456;2023-05-25T05:19:50;101941.13;;;11.28;92.06
25759;BME280;13604;52.496;13.456;2023-05-25T05:22:15;101940.38;;;11.44;92.38
25759;BME280;13604;52.496;13.456;2023-05-25T05:24:41;101963.63;;;11.69;91.65
25759;BME280;13604;52.496;13.456;2023-05-25T05:27:06;101944.44;;;11.68;90.41
25759;BME280;13604;52.496;13.456;2023-05-25T05:29:32;101949.88;;;11.86;89.74
25759;BME280;13604;52.496;13.456;2023-05-25T05:31:59;101973.91;;;12.10;87.34
25759;BME280;13604;52.496;13.456;2023-05-25T05:34:24;101940.72;;;11.93;86.23
25759;BME280;13604;52.496;13.456;2023-05-25T05:36:50;101957.38;;;12.10;85.47
25759;BME280;13604;52.496;13.456;2023-05-25T05:39:15;101976.69;;;12.28;84.88
25759;BME280;13604;52.496;13.456;2023-05-25T05:41:40;101989.69;;;12.42;84.67
25759;BME280;13604;52.496;13.456;2023-05-25T05:44:09;101984.88;;;12.49;84.70
25759;BME280;13604;52.496;13.456;2023-05-25T05:46:34;101985.50;;;12.60;83.79
25759;BME280;13604;52.496;13.456;2023-05-25T05:49:01;101976.13;;;12.64;83.58
25759;BME280;13604;52.496;13.456;2023-05-25T05:51:26;101986.88;;;12.85;82.44
25759;BME280;13604;52.496;13.456;2023-05-25T05:53:51;101950.25;;;12.68;82.11
25759;BME280;13604;52.496;13.456;2023-05-25T05:56:17;101977.34;;;13.02;81.66
25759;BME280;13604;52.496;13.456;2023-05-25T05:58:43;101994.13;;;13.22;79.77
25759;BME280;13604;52.496;13.456;2023-05-25T06:01:08;101995.63;;;13.33;79.56
25759;BME280;13604;52.496;13.456;2023-05-25T06:03:34;101989.53;;;13.33;78.94
25759;BME280;13604;52.496;13.456;2023-05-25T06:05:59;101991.00;;;13.44;78.54
25759;BME280;13604;52.496;13.456;2023-05-25T06:08:24;101991.38;;;13.52;77.96
25759;BME280;13604;52.496;13.456;2023-05-25T06:10:50;101995.72;;;13.51;77.06
25759;BME280;13604;52.496;13.456;2023-05-25T06:13:15;101977.06;;;13.45;76.99
25759;BME280;13604;52.496;13.456;2023-05-25T06:15:41;101985.16;;;13.66;76.77
25759;BME280;13604;52.496;13.456;2023-05-25T06:18:06;101996.50;;;13.83;76.32
25759;BME280;13604;52.496;13.456;2023-05-25T06:20:31;102012.78;;;13.94;75.97
25759;BME280;13604;52.496;13.456;2023-05-25T06:22:57;101969.19;;;13.78;75.65
25759;BME280;13604;52.496;13.456;2023-05-25T06:25:22;102001.13;;;14.05;75.28
25759;BME280;13604;52.496;13.456;2023-05-25T06:27:48;102002.59;;;14.16;75.41
25759;BME280;13604;52.496;13.456;2023-05-25T06:30:13;102000.22;;;14.39;74.17
25759;BME280;13604;52.496;13.456;2023-05-25T06:32:38;101976.19;;;14.30;73.04
25759;BME280;13604;52.496;13.456;2023-05-25T06:35:04;101994.59;;;14.49;72.01
25759;BME280;13604;52.496;13.456;2023-05-25T06:37:30;102016.03;;;14.77;71.10
25759;BME280;13604;52.496;13.456;2023-05-25T06:40:02;101994.25;;;14.78;70.49
25759;BME280;13604;52.496;13.456;2023-05-25T06:42:27;101979.56;;;14.63;69.16
25759;BME280;13604;52.496;13.456;2023-05-25T06:44:52;102001.56;;;14.85;68.58
25759;BME280;13604;52.496;13.456;2023-05-25T06:47:18;102018.00;;;14.99;68.31
25759;BME280;13604;52.496;13.456;2023-05-25T06:49:43;102016.56;;;15.05;67.68
25759;BME280;13604;52.496;13.456;2023-05-25T06:52:08;101997.50;;;15.09;66.64
25759;BME280;13604;52.496;13.456;2023-05-25T06:54:33;101994.81;;;15.27;66.73
25759;BME280;13604;52.496;13.456;2023-05-25T06:56:59;101985.34;;;15.31;66.85
25759;BME280;13604;52.496;13.456;2023-05-25T06:59:25;101991.03;;;15.40;66.18
25759;BME280;13604;52.496;13.456;2023-05-25T07:01:50;102000.44;;;15.55;65.00
25759;BME280;13604;52.496;13.456;2023-05-25T07:04:15;102004.03;;;15.76;65.60
25759;BME280;13604;52.496;13.456;2023-05-25T07:06:41;101984.53;;;15.91;64.66
25759;BME280;13604;52.496;13.456;2023-05-25T07:09:06;101994.88;;;16.07;62.88
25759;BME280;13604;52.496;13.456;2023-05-25T07:11:31;102016.59;;;16.24;62.75
25759;BME280;13604;52.496;13.456;2023-05-25T07:13:57;101990.06;;;16.18;62.30
25759;BME280;13604;52.496;13.456;2023-05-25T07:16:22;102008.19;;;16.33;60.44
25759;BME280;13604;52.496;13.456;2023-05-25T07:18:47;101990.66;;;16.32;59.77
25759;BME280;13604;52.496;13.456;2023-05-25T07:21:13;102013.69;;;16.60;59.78
25759;BME280;13604;52.496;13.456;2023-05-25T07:23:38;102008.25;;;16.55;58.81
25759;BME280;13604;52.496;13.456;2023-05-25T07:26:06;101995.28;;;16.60;59.33
25759;BME280;13604;52.496;13.456;2023-05-25T07:28:31;102017.94;;;16.78;57.73
25759;BME280;13604;52.496;13.456;2023-05-25T07:30:57;101990.41;;;16.69;57.93
25759;BME280;13604;52.496;13.456;2023-05-25T07:33:22;102012.34;;;16.91;56.34
25759;BME280;13604;52.496;13.456;2023-05-25T07:35:47;101991.28;;;16.91;56.67
25759;BME280;13604;52.496;13.456;2023-05-25T07:38:13;102018.94;;;17.26;56.36
25759;BME280;13604;52.496;13.456;2023-05-25T07:40:38;102020.44;;;17.42;55.89
25759;BME280;13604;52.496;13.456;2023-05-25T07:43:03;102027.53;;;17.45;52.39
25759;BME280;13604;52.496;13.456;2023-05-25T07:45:29;102022.44;;;17.50;53.80
25759;BME280;13604;52.496;13.456;2023-05-25T07:47:54;102030.66;;;17.81;53.32
25759;BME280;13604;52.496;13.456;2023-05-25T07:50:20;102021.41;;;17.69;52.12
25759;BME280;13604;52.496;13.456;2023-05-25T07:52:45;102029.59;;;17.76;52.50
25759;BME280;13604;52.496;13.456;2023-05-25T07:55:10;102019.31;;;17.84;50.95
25759;BME280;13604;52.496;13.456;2023-05-25T07:57:36;102031.34;;;18.26;50.36
25759;BME280;13604;52.496;13.456;2023-05-25T08:00:01;102040.03;;;18.76;47.97
25759;BME280;13604;52.496;13.456;2023-05-25T08:02:26;102030.75;;;19.46;46.30
25759;BME280;13604;52.496;13.456;2023-05-25T08:04:52;102021.22;;;20.15;44.88
25759;BME280;13604;52.496;13.456;2023-05-25T08:07:18;102019.53;;;20.89;42.41
25759;BME280;13604;52.496;13.456;2023-05-25T08:09:43;101995.81;;;21.36;41.08
25759;BME280;13604;52.496;13.456;2023-05-25T08:12:09;102029.84;;;21.57;41.10
25759;BME280;13604;52.496;13.456;2023-05-25T08:14:34;102033.16;;;21.91;40.65
25759;BME280;13604;52.496;13.456;2023-05-25T08:16:59;102035.91;;;22.46;40.36
25759;BME280;13604;52.496;13.456;2023-05-25T08:19:26;102019.63;;;22.26;39.83
25759;BME280;13604;52.496;13.456;2023-05-25T08:21:51;102024.50;;;21.14;41.69
25759;BME280;13604;52.496;13.456;2023-05-25T08:24:17;102026.16;;;21.95;40.00
25759;BME280;13604;52.496;13.456;2023-05-25T08:26:43;102036.38;;;22.23;40.07
25759;BME280;13604;52.496;13.456;2023-05-25T08:29:08;102039.41;;;21.49;41.36
25759;BME280;13604;52.496;13.456;2023-05-25T08:31:33;102019.13;;;20.37;42.67
25759;BME280;13604;52.496;13.456;2023-05-25T08:34:00;102035.66;;;19.95;44.50
25759;BME280;13604;52.496;13.456;2023-05-25T08:36:26;102038.44;;;19.39;45.33
25759;BME280;13604;52.496;13.456;2023-05-25T08:38:51;102000.28;;;19.90;45.28
25759;BME280;13604;52.496;13.456;2023-05-25T08:41:18;102035.59;;;20.62;43.06
25759;BME280;13604;52.496;13.456;2023-05-25T08:43:44;102023.56;;;20.38;43.01
25759;BME280;13604;52.496;13.456;2023-05-25T08:46:09;102038.84;;;20.50;43.53
25759;BME280;13604;52.496;13.456;2023-05-25T08:48:37;102026.78;;;20.26;44.16
25759;BME280;13604;52.496;13.456;2023-05-25T08:51:07;102013.91;;;20.05;44.74
25759;BME280;13604;52.496;13.456;2023-05-25T08:53:37;102037.22;;;20.20;44.74
25759;BME280;13604;52.496;13.456;2023-05-25T08:56:18;101967.88;;;19.97;44.15
25759;BME280;13604;52.496;13.456;2023-05-25T08:59:08;102037.06;;;20.49;44.15
25759;BME280;13604;52.496;13.456;2023-05-25T09:01:32;102037.31;;;20.23;44.80
25759;BME280;13604;52.496;13.456;2023-05-25T09:04:01;102017.19;;;21.44;42.34
25759;BME280;13604;52.496;13.456;2023-05-25T09:06:26;102041.22;;;23.68;39.32
25759;BME280;13604;52.496;13.456;2023-05-25T09:08:52;102019.63;;;25.65;35.61
25759;BME280;13604;52.496;13.456;2023-05-25T09:11:19;102032.19;;;26.58;32.72
25759;BME280;13604;52.496;13.456;2023-05-25T09:13:45;102032.19;;;26.46;33.07
25759;BME280;13604;52.496;13.456;2023-05-25T09:16:10;102046.28;;;25.63;33.44
25759;BME280;13604;52.496;13.456;2023-05-25T09:18:36;102044.22;;;25.10;34.46
25759;BME280;13604;52.496;13.456;2023-05-25T09:21:01;102021.44;;;25.86;33.34
25759;BME280;13604;52.496;13.456;2023-05-25T09:23:27;102040.16;;;27.05;31.38
25759;BME280;13604;52.496;13.456;2023-05-25T09:25:52;102012.13;;;27.95;30.69
25759;BME280;13604;52.496;13.456;2023-05-25T09:28:18;102047.66;;;28.19;30.13
25759;BME280;13604;52.496;13.456;2023-05-25T09:30:44;101979.44;;;28.58;29.39
25759;BME280;13604;52.496;13.456;2023-05-25T09:33:11;102034.88;;;30.04;27.71
25759;BME280;13604;52.496;13.456;2023-05-25T09:35:37;102047.59;;;29.92;26.99
25759;BME280;13604;52.496;13.456;2023-05-25T09:38:02;102050.28;;;28.25;27.72
25759;BME280;13604;52.496;13.456;2023-05-25T09:40:27;102041.09;;;26.91;29.37
25759;BME280;13604;52.496;13.456;2023-05-25T09:42:52;102030.19;;;25.40;30.77
25759;BME280;13604;52.496;13.456;2023-05-25T09:45:18;102048.22;;;26.78;30.60
25759;BME280;13604;52.496;13.456;2023-05-25T09:47:43;102034.19;;;28.28;28.82
25759;BME280;13604;52.496;13.456;2023-05-25T09:50:10;102025.41;;;29.08;27.45
25759;BME280;13604;52.496;13.456;2023-05-25T09:52:35;102053.19;;;30.35;26.77
25759;BME280;13604;52.496;13.456;2023-05-25T09:55:01;102045.28;;;31.67;25.08
25759;BME280;13604;52.496;13.456;2023-05-25T09:57:26;102033.06;;;31.51;24.33
25759;BME280;13604;52.496;13.456;2023-05-25T09:59:52;102046.56;;;30.56;25.03
25759;BME280;13604;52.496;13.456;2023-05-25T10:02:18;102033.81;;;29.52;26.80
25759;BME280;13604;52.496;13.456;2023-05-25T10:04:43;102043.53;;;30.21;26.39
25759;BME280;13604;52.496;13.456;2023-05-25T10:07:08;102041.06;;;30.63;25.66
25759;BME280;13604;52.496;13.456;2023-05-25T10:09:38;102053.81;;;29.28;27.59
25759;BME280;13604;52.496;13.456;2023-05-25T10:12:04;102032.66;;;27.88;29.44
25759;BME280;13604;52.496;13.456;2023-05-25T10:14:31;102042.88;;;26.12;31.61
25759;BME280;13604;52.496;13.456;2023-05-25T10:17:03;102044.28;;;25.17;33.13
25759;BME280;13604;52.496;13.456;2023-05-25T10:19:45;102058.78;;;24.37;33.97
25759;BME280;13604;52.496;13.456;2023-05-25T10:22:19;102057.91;;;25.82;32.58
25759;BME280;13604;52.496;13.456;2023-05-25T10:24:53;102055.00;;;27.81;30.21
25759;BME280;13604;52.496;13.456;2023-05-25T10:27:22;102057.44;;;29.92;26.95
25759;BME280;13604;52.496;13.456;2023-05-25T10:29:48;102057.28;;;30.01;26.18
25759;BME280;13604;52.496;13.456;2023-05-25T10:32:15;102039.75;;;31.31;25.81
25759;BME280;13604;52.496;13.456;2023-05-25T10:34:40;102065.81;;;32.84;23.59
25759;BME280;13604;52.496;13.456;2023-05-25T10:37:06;102047.78;;;33.17;22.47
25759;BME280;13604;52.496;13.456;2023-05-25T10:39:33;102055.94;;;34.05;22.27
25759;BME280;13604;52.496;13.456;2023-05-25T10:42:00;102060.66;;;33.70;22.14
25759;BME280;13604;52.496;13.456;2023-05-25T10:44:30;102037.41;;;33.02;22.66
25759;BME280;13604;52.496;13.456;2023-05-25T10:46:58;102035.59;;;34.22;22.91
25759;BME280;13604;52.496;13.456;2023-05-25T10:49:36;102048.66;;;35.11;20.73
25759;BME280;13604;52.496;13.456;2023-05-25T10:52:17;102048.47;;;35.41;20.38
25759;BME280;13604;52.496;13.456;2023-05-25T10:54:42;102024.88;;;35.45;20.48
25759;BME280;13604;52.496;13.456;2023-05-25T10:59:35;102033.34;;;33.80;22.27
25759;BME280;13604;52.496;13.456;2023-05-25T11:02:05;102044.91;;;34.40;21.92
25759;BME280;13604;52.496;13.456;2023-05-25T11:04:30;102052.97;;;33.85;22.02
25759;BME280;13604;52.496;13.456;2023-05-25T11:09:29;102051.50;;;35.08;21.09
25759;BME280;13604;52.496;13.456;2023-05-25T11:14:28;102048.34;;;34.70;21.33
25759;BME280;13604;52.496;13.456;2023-05-25T11:17:11;102036.44;;;32.01;23.80
25759;BME280;13604;52.496;13.456;2023-05-25T11:19:51;102052.19;;;29.83;26.00
25759;BME280;13604;52.496;13.456;2023-05-25T11:27:12;102042.78;;;25.83;30.93
25759;BME280;13604;52.496;13.456;2023-05-25T11:29:38;102029.34;;;25.50;31.57
25759;BME280;13604;52.496;13.456;2023-05-25T11:32:10;102040.16;;;28.64;28.18
25759;BME280;13604;52.496;13.456;2023-05-25T11:34:37;102050.44;;;31.78;25.00
25759;BME280;13604;52.496;13.456;2023-05-25T11:37:02;102029.34;;;33.33;22.92
25759;BME280;13604;52.496;13.456;2023-05-25T11:39:29;102047.78;;;35.11;21.58
25759;BME280;13604;52.496;13.456;2023-05-25T11:41:56;102052.66;;;35.73;20.34
25759;BME280;13604;52.496;13.456;2023-05-25T11:44:27;102055.13;;;35.80;20.62
25759;BME280;13604;52.496;13.456;2023-05-25T11:46:54;102040.81;;;35.76;20.68
25759;BME280;13604;52.496;13.456;2023-05-25T11:49:21;102053.09;;;36.72;20.19
25759;BME280;13604;52.496;13.456;2023-05-25T11:51:46;102041.66;;;37.05;18.75
25759;BME280;13604;52.496;13.456;2023-05-25T11:54:20;102041.78;;;37.41;19.18
25759;BME280;13604;52.496;13.456;2023-05-25T11:56:46;102033.66;;;37.01;18.94
25759;BME280;13604;52.496;13.456;2023-05-25T11:59:11;102047.59;;;37.52;19.42
25759;BME280;13604;52.496;13.456;2023-05-25T12:01:36;102041.38;;;39.11;18.07
25759;BME280;13604;52.496;13.456;2023-05-25T12:04:07;102039.94;;;39.85;17.28
25759;BME280;13604;52.496;13.456;2023-05-25T12:06:33;102045.19;;;38.38;17.81
25759;BME280;13604;52.496;13.456;2023-05-25T12:09:01;102027.97;;;38.20;18.15
25759;BME280;13604;52.496;13.456;2023-05-25T12:11:30;102037.91;;;38.74;17.30
25759;BME280;13604;52.496;13.456;2023-05-25T12:13:56;102035.19;;;38.74;17.52
25759;BME280;13604;52.496;13.456;2023-05-25T12:16:23;102023.84;;;38.99;18.06
25759;BME280;13604;52.496;13.456;2023-05-25T12:18:50;102031.56;;;38.38;18.14
25759;BME280;13604;52.496;13.456;2023-05-25T12:21:16;102021.00;;;36.81;19.17
25759;BME280;13604;52.496;13.456;2023-05-25T12:23:41;102014.63;;;33.73;22.10
25759;BME280;13604;52.496;13.456;2023-05-25T12:26:12;102030.88;;;30.81;25.39
25759;BME280;13604;52.496;13.456;2023-05-25T12:28:38;102032.75;;;28.89;27.59
25759;BME280;13604;52.496;13.456;2023-05-25T12:31:23;102027.47;;;27.59;29.75
25759;BME280;13604;52.496;13.456;2023-05-25T12:34:18;102035.81;;;28.46;29.49
25759;BME280;13604;52.496;13.456;2023-05-25T12:36:48;102031.72;;;30.33;27.54
25759;BME280;13604;52.496;13.456;2023-05-25T12:39:30;102013.56;;;30.97;26.68
25759;BME280;13604;52.496;13.456;2023-05-25T12:41:56;102031.78;;;30.80;26.73
25759;BME280;13604;52.496;13.456;2023-05-25T12:46:54;102027.28;;;29.00;28.01
25759;BME280;13604;52.496;13.456;2023-05-25T12:49:28;102021.47;;;26.91;31.41
25759;BME280;13604;52.496;13.456;2023-05-25T12:51:53;102029.50;;;26.20;32.77
25759;BME280;13604;52.496;13.456;2023-05-25T12:54:42;102022.97;;;25.19;34.89
25759;BME280;13604;52.496;13.456;2023-05-25T12:57:13;102021.75;;;24.65;35.53
25759;BME280;13604;52.496;13.456;2023-05-25T12:59:41;102005.44;;;24.23;36.28
25759;BME280;13604;52.496;13.456;2023-05-25T13:02:07;102031.84;;;24.03;36.25
25759;BME280;13604;52.496;13.456;2023-05-25T13:04:33;102020.78;;;23.64;36.96
25759;BME280;13604;52.496;13.456;2023-05-25T13:06:59;102023.66;;;23.83;36.54
25759;BME280;13604;52.496;13.456;2023-05-25T13:09:25;102011.69;;;26.84;32.48
25759;BME280;13604;52.496;13.456;2023-05-25T13:11:52;102001.97;;;30.44;27.97
25759;BME280;13604;52.496;13.456;2023-05-25T13:14:19;102002.69;;;32.57;24.71
25759;BME280;13604;52.496;13.456;2023-05-25T13:16:44;102020.34;;;32.70;25.12
25759;BME280;13604;52.496;13.456;2023-05-25T13:19:10;102019.66;;;30.57;27.26
25759;BME280;13604;52.496;13.456;2023-05-25T13:21:35;102016.59;;;28.97;29.44
25759;BME280;13604;52.496;13.456;2023-05-25T13:24:00;102009.88;;;26.95;31.49
25759;BME280;13604;52.496;13.456;2023-05-25T13:26:26;102018.78;;;25.84;33.07
25759;BME280;13604;52.496;13.456;2023-05-25T13:28:51;102006.00;;;25.06;34.65
25759;BME280;13604;52.496;13.456;2023-05-25T13:31:16;102010.16;;;24.58;34.83
25759;BME280;13604;52.496;13.456;2023-05-25T13:33:42;102000.16;;;26.31;32.53
25759;BME280;13604;52.496;13.456;2023-05-25T13:36:07;102014.38;;;26.74;31.64
25759;BME280;13604;52.496;13.456;2023-05-25T13:38:33;101994.75;;;25.81;33.35
25759;BME280;13604;52.496;13.456;2023-05-25T13:40:59;102006.00;;;25.06;34.98
25759;BME280;13604;52.496;13.456;2023-05-25T13:43:25;102000.13;;;24.26;36.53
25759;BME280;13604;52.496;13.456;2023-05-25T13:45:50;101986.09;;;23.57;37.37
25759;BME280;13604;52.496;13.456;2023-05-25T13:48:16;101973.41;;;25.80;34.04
25759;BME280;13604;52.496;13.456;2023-05-25T13:50:41;102012.69;;;29.91;28.93
25759;BME280;13604;52.496;13.456;2023-05-25T13:53:09;101991.38;;;31.70;25.47